sensor_id;sensor_type;location;lat;lon;timestamp;pressure;altitude;pressure_sealevel;temperature;humidity
49723;BME280;43484;43.608;1.458;2023-05-11T00:00:40;99910.72;;;11.68;100.00
49723;BME280;43484;43.608;1.458;2023-05-11T00:03:07;99902.81;;;11.60;100.00
49723;BME280;43484;43.608;1.458;2023-05-11T00:05:33;99906.25;;;11.62;100.00
49723;BME280;43484;43.608;1.458;2023-05-11T00:08:00;99897.50;;;11.54;100.00
49723;BME280;43484;43.608;1.458;2023-05-11T00:10:28;99887.25;;;11.54;100.00
49723;BME280;43484;43.608;1.458;2023-05-11T00:12:55;99891.47;;;11.52;100.00
49723;BME280;43484;43.608;1.458;2023-05-11T00:15:22;99897.47;;;11.53;100.00
49723;BME280;43484;43.608;1.458;2023-05-11T00:17:49;99893.19;;;11.52;100.00
49723;BME280;43484;43.608;1.458;2023-05-11T00:20:15;99895.75;;;11.52;100.00
49723;BME280;43484;43.608;1.458;2023-05-11T00:22:42;99902.56;;;11.51;100.00
49723;BME280;43484;43.608;1.458;2023-05-11T00:25:10;99910.25;;;11.51;100.00
49723;BME280;43484;43.608;1.458;2023-05-11T00:27:36;99911.16;;;11.53;100.00
49723;BME280;43484;43.608;1.458;2023-05-11T00:30:03;99923.00;;;11.48;100.00
49723;BME280;43484;43.608;1.458;2023-05-11T00:32:30;99914.50;;;11.51;100.00
49723;BME280;43484;43.608;1.458;2023-05-11T00:34:57;99915.34;;;11.50;100.00
49723;BME280;43484;43.608;1.458;2023-05-11T00:37:24;99920.41;;;11.47;100.00
49723;BME280;43484;43.608;1.458;2023-05-11T00:39:51;99922.06;;;11.45;100.00
49723;BME280;43484;43.608;1.458;2023-05-11T00:42:18;99921.13;;;11.43;100.00
49723;BME280;43484;43.608;1.458;2023-05-11T00:44:45;99933.63;;;11.30;100.00
49723;BME280;43484;43.608;1.458;2023-05-11T00:47:12;99920.22;;;11.40;100.00
49723;BME280;43484;43.608;1.458;2023-05-11T00:49:40;99929.47;;;11.35;100.00
49723;BME280;43484;43.608;1.458;2023-05-11T00:52:07;99918.44;;;11.38;100.00
49723;BME280;43484;43.608;1.458;2023-05-11T00:54:34;99913.38;;;11.39;100.00
49723;BME280;43484;43.608;1.458;2023-05-11T00:57:02;99913.41;;;11.41;100.00
49723;BME280;43484;43.608;1.458;2023-05-11T00:59:29;99924.28;;;11.32;100.00
49723;BME280;43484;43.608;1.458;2023-05-11T01:01:56;99913.13;;;11.32;100.00
49723;BME280;43484;43.608;1.458;2023-05-11T01:04:23;99913.50;;;11.14;100.00
49723;BME280;43484;43.608;1.458;2023-05-11T01:07:02;99898.31;;;11.22;100.00
49723;BME280;43484;43.608;1.458;2023-05-11T01:12:13;99880.59;;;11.29;100.00
49723;BME280;43484;43.608;1.458;2023-05-11T01:14:51;99871.88;;;11.23;100.00
49723;BME280;43484;43.608;1.458;2023-05-11T01:17:26;99864.19;;;11.23;100.00
49723;BME280;43484;43.608;1.458;2023-05-11T01:20:00;99866.66;;;11.20;100.00
49723;BME280;43484;43.608;1.458;2023-05-11T01:22:44;99858.22;;;11.24;100.00
49723;BME280;43484;43.608;1.458;2023-05-11T01:31:08;99851.31;;;11.21;100.00
49723;BME280;43484;43.608;1.458;2023-05-11T01:33:38;99844.66;;;11.28;100.00
49723;BME280;43484;43.608;1.458;2023-05-11T01:36:09;99845.63;;;11.31;100.00
49723;BME280;43484;43.608;1.458;2023-05-11T01:38:40;99840.31;;;11.25;100.00
49723;BME280;43484;43.608;1.458;2023-05-11T01:41:18;99830.81;;;11.21;100.00
49723;BME280;43484;43.608;1.458;2023-05-11T01:43:53;99818.94;;;11.25;100.00
49723;BME280;43484;43.608;1.458;2023-05-11T01:46:24;99818.09;;;11.26;100.00
49723;BME280;43484;43.608;1.458;2023-05-11T01:48:54;99809.72;;;11.31;100.00
49723;BME280;43484;43.608;1.458;2023-05-11T01:51:24;99807.16;;;11.31;100.00
49723;BME280;43484;43.608;1.458;2023-05-11T01:53:53;99795.88;;;11.25;100.00
49723;BME280;43484;43.608;1.458;2023-05-11T01:56:21;99792.34;;;11.21;100.00
49723;BME280;43484;43.608;1.458;2023-05-11T01:58:50;99788.03;;;11.20;100.00
49723;BME280;43484;43.608;1.458;2023-05-11T02:01:19;99780.63;;;11.31;100.00
49723;BME280;43484;43.608;1.458;2023-05-11T02:03:46;99775.19;;;11.19;100.00
49723;BME280;43484;43.608;1.458;2023-05-11T02:06:16;99773.63;;;11.25;100.00
49723;BME280;43484;43.608;1.458;2023-05-11T02:08:44;99771.78;;;11.18;100.00
49723;BME280;43484;43.608;1.458;2023-05-11T02:11:12;99769.09;;;11.15;100.00
49723;BME280;43484;43.608;1.458;2023-05-11T02:13:41;99761.66;;;11.24;100.00
49723;BME280;43484;43.608;1.458;2023-05-11T02:16:09;99758.75;;;11.11;100.00
49723;BME280;43484;43.608;1.458;2023-05-11T02:18:38;99751.13;;;11.14;100.00
49723;BME280;43484;43.608;1.458;2023-05-11T02:21:07;99742.44;;;11.09;100.00
49723;BME280;43484;43.608;1.458;2023-05-11T02:23:35;99740.63;;;11.03;100.00
49723;BME280;43484;43.608;1.458;2023-05-11T02:26:03;99750.69;;;10.97;100.00
49723;BME280;43484;43.608;1.458;2023-05-11T02:28:31;99729.38;;;10.98;100.00
49723;BME280;43484;43.608;1.458;2023-05-11T02:31:01;99719.25;;;11.04;100.00
49723;BME280;43484;43.608;1.458;2023-05-11T02:33:34;99723.41;;;10.99;100.00
49723;BME280;43484;43.608;1.458;2023-05-11T02:36:02;99719.16;;;11.00;100.00
49723;BME280;43484;43.608;1.458;2023-05-11T02:38:32;99720.81;;;10.98;100.00
49723;BME280;43484;43.608;1.458;2023-05-11T02:41:03;99709.72;;;10.99;100.00
49723;BME280;43484;43.608;1.458;2023-05-11T02:43:34;99708.72;;;10.94;100.00
49723;BME280;43484;43.608;1.458;2023-05-11T02:46:05;99707.78;;;10.90;100.00
49723;BME280;43484;43.608;1.458;2023-05-11T02:48:38;99702.53;;;10.86;100.00
49723;BME280;43484;43.608;1.458;2023-05-11T02:51:09;99704.25;;;10.87;100.00
49723;BME280;43484;43.608;1.458;2023-05-11T02:53:39;99705.03;;;10.83;100.00
49723;BME280;43484;43.608;1.458;2023-05-11T02:56:07;99693.91;;;10.82;100.00
49723;BME280;43484;43.608;1.458;2023-05-11T02:58:34;99693.84;;;10.79;100.00
49723;BME280;43484;43.608;1.458;2023-05-11T03:01:01;99682.09;;;10.87;100.00
49723;BME280;43484;43.608;1.458;2023-05-11T03:03:31;99686.59;;;10.97;100.00
49723;BME280;43484;43.608;1.458;2023-05-11T03:05:58;99685.56;;;10.89;100.00
49723;BME280;43484;43.608;1.458;2023-05-11T03:08:25;99690.44;;;10.80;100.00
49723;BME280;43484;43.608;1.458;2023-05-11T03:10:52;99687.13;;;10.84;100.00
49723;BME280;43484;43.608;1.458;2023-05-11T03:13:20;99681.91;;;10.80;100.00
49723;BME280;43484;43.608;1.458;2023-05-11T03:15:48;99682.63;;;10.76;100.00
49723;BME280;43484;43.608;1.458;2023-05-11T03:18:15;99682.72;;;10.79;100.00
49723;BME280;43484;43.608;1.458;2023-05-11T03:20:44;99679.22;;;10.77;100.00
49723;BME280;43484;43.608;1.458;2023-05-11T03:23:14;99681.69;;;10.72;100.00
49723;BME280;43484;43.608;1.458;2023-05-11T03:25:41;99686.91;;;10.77;100.00
49723;BME280;43484;43.608;1.458;2023-05-11T03:28:09;99682.34;;;10.65;100.00
49723;BME280;43484;43.608;1.458;2023-05-11T03:30:37;99682.53;;;10.71;100.00
49723;BME280;43484;43.608;1.458;2023-05-11T03:33:05;99679.38;;;10.81;100.00
49723;BME280;43484;43.608;1.458;2023-05-11T03:35:33;99683.25;;;10.67;100.00
49723;BME280;43484;43.608;1.458;2023-05-11T03:38:01;99678.91;;;10.63;100.00
49723;BME280;43484;43.608;1.458;2023-05-11T03:40:30;99673.41;;;10.50;100.00
49723;BME280;43484;43.608;1.458;2023-05-11T03:43:01;99669.28;;;10.55;100.00
49723;BME280;43484;43.608;1.458;2023-05-11T03:45:28;99667.41;;;10.49;100.00
49723;BME280;43484;43.608;1.458;2023-05-11T03:47:57;99664.88;;;10.51;100.00
49723;BME280;43484;43.608;1.458;2023-05-11T03:50:26;99665.88;;;10.56;100.00
49723;BME280;43484;43.608;1.458;2023-05-11T03:52:53;99654.56;;;10.48;100.00
49723;BME280;43484;43.608;1.458;2023-05-11T03:55:20;99657.28;;;10.54;100.00
49723;BME280;43484;43.608;1.458;2023-05-11T03:57:48;99652.53;;;10.67;100.00
49723;BME280;43484;43.608;1.458;2023-05-11T04:00:15;99655.00;;;10.64;100.00
49723;BME280;43484;43.608;1.458;2023-05-11T04:02:42;99651.41;;;10.58;100.00
49723;BME280;43484;43.608;1.458;2023-05-11T04:05:10;99650.53;;;10.57;100.00
49723;BME280;43484;43.608;1.458;2023-05-11T04:07:37;99648.88;;;10.58;100.00
49723;BME280;43484;43.608;1.458;2023-05-11T04:10:05;99643.81;;;10.61;100.00
49723;BME280;43484;43.608;1.458;2023-05-11T04:12:32;99648.94;;;10.61;100.00
49723;BME280;43484;43.608;1.458;2023-05-11T04:14:58;99641.25;;;10.61;100.00
49723;BME280;43484;43.608;1.458;2023-05-11T04:17:25;99647.44;;;10.69;100.00
49723;BME280;43484;43.608;1.458;2023-05-11T04:19:51;99642.28;;;10.67;100.00
49723;BME280;43484;43.608;1.458;2023-05-11T04:22:18;99646.69;;;10.73;100.00
49723;BME280;43484;43.608;1.458;2023-05-11T04:24:45;99640.69;;;10.72;100.00
49723;BME280;43484;43.608;1.458;2023-05-11T04:27:11;99637.56;;;10.84;100.00
49723;BME280;43484;43.608;1.458;2023-05-11T04:29:38;99644.09;;;10.71;100.00
49723;BME280;43484;43.608;1.458;2023-05-11T04:32:04;99631.47;;;10.79;100.00
49723;BME280;43484;43.608;1.458;2023-05-11T04:34:31;99640.63;;;10.69;100.00
49723;BME280;43484;43.608;1.458;2023-05-11T04:36:58;99638.81;;;10.65;100.00
49723;BME280;43484;43.608;1.458;2023-05-11T04:39:24;99633.78;;;10.68;100.00
49723;BME280;43484;43.608;1.458;2023-05-11T04:41:51;99637.91;;;10.63;100.00
49723;BME280;43484;43.608;1.458;2023-05-11T04:44:18;99638.19;;;10.75;100.00
49723;BME280;43484;43.608;1.458;2023-05-11T04:46:44;99636.41;;;10.71;100.00
49723;BME280;43484;43.608;1.458;2023-05-11T04:49:11;99638.94;;;10.70;100.00
49723;BME280;43484;43.608;1.458;2023-05-11T04:51:38;99642.97;;;10.62;100.00
49723;BME280;43484;43.608;1.458;2023-05-11T04:54:04;99637.16;;;10.67;100.00
49723;BME280;43484;43.608;1.458;2023-05-11T04:56:31;99638.06;;;10.69;100.00
49723;BME280;43484;43.608;1.458;2023-05-11T04:58:57;99647.44;;;10.69;100.00
49723;BME280;43484;43.608;1.458;2023-05-11T05:01:24;99646.53;;;10.67;100.00
49723;BME280;43484;43.608;1.458;2023-05-11T05:03:50;99644.16;;;10.74;100.00
49723;BME280;43484;43.608;1.458;2023-05-11T05:06:17;99647.69;;;10.78;100.00
49723;BME280;43484;43.608;1.458;2023-05-11T05:08:44;99652.97;;;10.85;100.00
49723;BME280;43484;43.608;1.458;2023-05-11T05:11:10;99647.19;;;10.92;100.00
49723;BME280;43484;43.608;1.458;2023-05-11T05:13:37;99653.09;;;10.88;100.00
49723;BME280;43484;43.608;1.458;2023-05-11T05:16:04;99652.22;;;10.88;100.00
49723;BME280;43484;43.608;1.458;2023-05-11T05:18:31;99657.59;;;10.98;100.00
49723;BME280;43484;43.608;1.458;2023-05-11T05:20:58;99663.63;;;11.00;100.00
49723;BME280;43484;43.608;1.458;2023-05-11T05:23:25;99661.81;;;10.96;100.00
49723;BME280;43484;43.608;1.458;2023-05-11T05:25:51;99666.56;;;10.81;100.00
49723;BME280;43484;43.608;1.458;2023-05-11T05:28:18;99675.22;;;10.86;100.00
49723;BME280;43484;43.608;1.458;2023-05-11T05:30:44;99684.69;;;10.89;100.00
49723;BME280;43484;43.608;1.458;2023-05-11T05:33:11;99678.75;;;10.90;100.00
49723;BME280;43484;43.608;1.458;2023-05-11T05:35:38;99687.22;;;10.87;100.00
49723;BME280;43484;43.608;1.458;2023-05-11T05:38:04;99690.13;;;11.01;100.00
49723;BME280;43484;43.608;1.458;2023-05-11T05:40:31;99708.06;;;11.01;100.00
49723;BME280;43484;43.608;1.458;2023-05-11T05:42:57;99700.34;;;10.99;100.00
49723;BME280;43484;43.608;1.458;2023-05-11T05:45:24;99714.06;;;11.01;100.00
49723;BME280;43484;43.608;1.458;2023-05-11T05:47:50;99714.09;;;11.03;100.00
49723;BME280;43484;43.608;1.458;2023-05-11T05:50:17;99714.13;;;11.04;100.00
49723;BME280;43484;43.608;1.458;2023-05-11T05:52:44;99710.13;;;11.15;100.00
49723;BME280;43484;43.608;1.458;2023-05-11T05:55:11;99727.28;;;11.16;100.00
49723;BME280;43484;43.608;1.458;2023-05-11T05:57:38;99742.78;;;11.22;100.00
49723;BME280;43484;43.608;1.458;2023-05-11T06:00:05;99738.09;;;11.39;100.00
49723;BME280;43484;43.608;1.458;2023-05-11T06:02:32;99742.84;;;11.58;100.00
49723;BME280;43484;43.608;1.458;2023-05-11T06:04:58;99764.31;;;11.62;100.00
49723;BME280;43484;43.608;1.458;2023-05-11T06:07:25;99782.38;;;11.65;100.00
49723;BME280;43484;43.608;1.458;2023-05-11T06:09:52;99803.50;;;11.56;100.00
49723;BME280;43484;43.608;1.458;2023-05-11T06:12:18;99819.81;;;11.58;100.00
49723;BME280;43484;43.608;1.458;2023-05-11T06:14:45;99826.56;;;11.55;100.00
49723;BME280;43484;43.608;1.458;2023-05-11T06:17:11;99824.03;;;11.56;100.00
49723;BME280;43484;43.608;1.458;2023-05-11T06:19:38;99838.47;;;11.53;100.00
49723;BME280;43484;43.608;1.458;2023-05-11T06:22:06;99835.28;;;11.63;100.00
49723;BME280;43484;43.608;1.458;2023-05-11T06:24:33;99836.94;;;11.61;100.00
49723;BME280;43484;43.608;1.458;2023-05-11T06:26:59;99844.97;;;11.71;100.00
49723;BME280;43484;43.608;1.458;2023-05-11T06:29:26;99848.19;;;11.64;100.00
49723;BME280;43484;43.608;1.458;2023-05-11T06:31:53;99850.97;;;11.72;100.00
49723;BME280;43484;43.608;1.458;2023-05-11T06:34:21;99853.53;;;11.72;100.00
49723;BME280;43484;43.608;1.458;2023-05-11T06:36:48;99861.22;;;11.72;100.00
49723;BME280;43484;43.608;1.458;2023-05-11T06:39:14;99858.81;;;11.78;100.00
49723;BME280;43484;43.608;1.458;2023-05-11T06:41:41;99856.84;;;11.68;100.00
49723;BME280;43484;43.608;1.458;2023-05-11T06:44:07;99854.25;;;12.00;100.00
49723;BME280;43484;43.608;1.458;2023-05-11T06:46:34;99872.97;;;11.96;100.00
49723;BME280;43484;43.608;1.458;2023-05-11T06:49:01;99882.63;;;12.06;100.00
49723;BME280;43484;43.608;1.458;2023-05-11T06:51:28;99892.78;;;12.02;100.00
49723;BME280;43484;43.608;1.458;2023-05-11T06:53:54;99901.53;;;12.10;100.00
49723;BME280;43484;43.608;1.458;2023-05-11T06:56:21;99915.22;;;12.09;100.00
49723;BME280;43484;43.608;1.458;2023-05-11T06:58:47;99932.13;;;12.01;100.00
49723;BME280;43484;43.608;1.458;2023-05-11T07:01:14;99928.81;;;12.05;100.00
49723;BME280;43484;43.608;1.458;2023-05-11T07:03:41;99929.13;;;12.17;100.00
49723;BME280;43484;43.608;1.458;2023-05-11T07:06:08;99947.81;;;12.11;100.00
49723;BME280;43484;43.608;1.458;2023-05-11T07:08:34;99946.81;;;12.06;100.00
49723;BME280;43484;43.608;1.458;2023-05-11T07:11:01;99942.91;;;12.20;100.00
49723;BME280;43484;43.608;1.458;2023-05-11T07:13:27;99948.72;;;12.13;100.00
49723;BME280;43484;43.608;1.458;2023-05-11T07:15:54;99953.97;;;12.19;100.00
49723;BME280;43484;43.608;1.458;2023-05-11T07:18:23;99953.28;;;12.25;100.00
49723;BME280;43484;43.608;1.458;2023-05-11T07:20:49;99950.16;;;12.38;100.00
49723;BME280;43484;43.608;1.458;2023-05-11T07:23:16;99965.59;;;12.39;100.00
49723;BME280;43484;43.608;1.458;2023-05-11T07:25:43;99975.91;;;12.41;100.00
49723;BME280;43484;43.608;1.458;2023-05-11T07:28:10;99982.75;;;12.39;100.00
49723;BME280;43484;43.608;1.458;2023-05-11T07:30:37;99979.72;;;12.56;100.00
49723;BME280;43484;43.608;1.458;2023-05-11T07:33:03;100000.94;;;12.48;100.00
49723;BME280;43484;43.608;1.458;2023-05-11T07:35:30;99993.56;;;12.61;100.00
49723;BME280;43484;43.608;1.458;2023-05-11T07:37:57;100006.31;;;12.57;100.00
49723;BME280;43484;43.608;1.458;2023-05-11T07:40:23;100003.75;;;12.57;100.00
49723;BME280;43484;43.608;1.458;2023-05-11T07:42:50;100020.81;;;12.55;100.00
49723;BME280;43484;43.608;1.458;2023-05-11T07:45:17;100020.75;;;12.52;100.00
49723;BME280;43484;43.608;1.458;2023-05-11T07:47:44;100036.16;;;12.52;100.00
49723;BME280;43484;43.608;1.458;2023-05-11T07:50:10;100042.88;;;12.47;100.00
49723;BME280;43484;43.608;1.458;2023-05-11T07:52:38;100054.56;;;12.69;100.00
49723;BME280;43484;43.608;1.458;2023-05-11T07:55:05;100060.72;;;12.75;100.00
49723;BME280;43484;43.608;1.458;2023-05-11T07:57:31;100078.78;;;12.78;100.00
49723;BME280;43484;43.608;1.458;2023-05-11T07:59:58;100080.28;;;12.69;100.00
49723;BME280;43484;43.608;1.458;2023-05-11T08:02:25;100084.69;;;12.74;100.00
49723;BME280;43484;43.608;1.458;2023-05-11T08:04:51;100102.88;;;12.82;100.00
49723;BME280;43484;43.608;1.458;2023-05-11T08:07:18;100103.50;;;13.06;100.00
49723;BME280;43484;43.608;1.458;2023-05-11T08:09:45;100103.06;;;13.25;100.00
49723;BME280;43484;43.608;1.458;2023-05-11T08:12:11;100113.38;;;13.25;100.00
49723;BME280;43484;43.608;1.458;2023-05-11T08:14:38;100112.50;;;13.23;100.00
49723;BME280;43484;43.608;1.458;2023-05-11T08:17:05;100102.75;;;13.48;100.00
49723;BME280;43484;43.608;1.458;2023-05-11T08:19:31;100108.41;;;13.32;100.00
49723;BME280;43484;43.608;1.458;2023-05-11T08:21:59;100097.31;;;13.35;100.00
49723;BME280;43484;43.608;1.458;2023-05-11T08:24:26;100102.31;;;13.29;100.00
49723;BME280;43484;43.608;1.458;2023-05-11T08:26:53;100092.25;;;13.38;100.00
49723;BME280;43484;43.608;1.458;2023-05-11T08:29:19;100093.56;;;13.58;100.00
49723;BME280;43484;43.608;1.458;2023-05-11T08:31:46;100103.22;;;13.69;100.00
49723;BME280;43484;43.608;1.458;2023-05-11T08:34:14;100107.53;;;13.32;100.00
49723;BME280;43484;43.608;1.458;2023-05-11T08:36:46;100085.84;;;12.87;100.00
49723;BME280;43484;43.608;1.458;2023-05-11T08:39:12;99927.75;;;11.97;100.00
49723;BME280;43484;43.608;1.458;2023-05-11T08:41:39;99796.47;;;11.49;100.00
49723;BME280;43484;43.608;1.458;2023-05-11T08:44:06;99689.88;;;11.60;100.00
49723;BME280;43484;43.608;1.458;2023-05-11T08:46:34;99645.97;;;11.48;100.00
49723;BME280;43484;43.608;1.458;2023-05-11T08:49:01;99623.16;;;11.60;100.00
49723;BME280;43484;43.608;1.458;2023-05-11T08:51:28;99606.34;;;11.73;100.00
49723;BME280;43484;43.608;1.458;2023-05-11T08:53:54;99600.41;;;11.74;100.00
49723;BME280;43484;43.608;1.458;2023-05-11T08:56:28;99600.44;;;11.75;100.00
49723;BME280;43484;43.608;1.458;2023-05-11T08:58:55;99601.72;;;11.97;100.00
49723;BME280;43484;43.608;1.458;2023-05-11T09:01:24;99594.28;;;12.09;100.00
49723;BME280;43484;43.608;1.458;2023-05-11T09:03:53;99586.06;;;12.28;100.00
49723;BME280;43484;43.608;1.458;2023-05-11T09:06:23;99583.69;;;12.38;100.00
49723;BME280;43484;43.608;1.458;2023-05-11T09:08:50;99581.34;;;12.50;100.00
49723;BME280;43484;43.608;1.458;2023-05-11T09:11:18;99579.66;;;12.52;100.00
49723;BME280;43484;43.608;1.458;2023-05-11T09:13:45;99573.88;;;12.64;100.00
49723;BME280;43484;43.608;1.458;2023-05-11T09:16:12;99576.03;;;12.91;100.00
49723;BME280;43484;43.608;1.458;2023-05-11T09:18:49;99588.63;;;12.74;100.00
49723;BME280;43484;43.608;1.458;2023-05-11T09:21:17;99610.88;;;12.74;100.00
49723;BME280;43484;43.608;1.458;2023-05-11T09:23:44;99620.31;;;12.75;100.00
49723;BME280;43484;43.608;1.458;2023-05-11T09:26:32;99633.34;;;12.85;100.00
49723;BME280;43484;43.608;1.458;2023-05-11T09:28:59;99627.75;;;13.06;100.00
49723;BME280;43484;43.608;1.458;2023-05-11T09:31:39;99670.44;;;12.99;100.00
49723;BME280;43484;43.608;1.458;2023-05-11T09:34:18;99732.88;;;12.92;100.00
49723;BME280;43484;43.608;1.458;2023-05-11T09:36:53;99801.44;;;12.92;100.00
49723;BME280;43484;43.608;1.458;2023-05-11T09:39:34;99845.22;;;12.96;100.00
49723;BME280;43484;43.608;1.458;2023-05-11T09:42:16;99904.97;;;13.25;100.00
49723;BME280;43484;43.608;1.458;2023-05-11T09:44:44;99914.25;;;13.60;100.00
49723;BME280;43484;43.608;1.458;2023-05-11T09:47:13;99937.28;;;13.52;100.00
49723;BME280;43484;43.608;1.458;2023-05-11T09:49:41;99922.13;;;13.67;100.00
49723;BME280;43484;43.608;1.458;2023-05-11T09:52:13;99964.78;;;13.55;100.00
49723;BME280;43484;43.608;1.458;2023-05-11T09:54:49;99980.97;;;13.49;100.00
49723;BME280;43484;43.608;1.458;2023-05-11T09:57:23;99994.56;;;13.42;100.00
49723;BME280;43484;43.608;1.458;2023-05-11T09:59:52;99999.16;;;13.58;100.00
49723;BME280;43484;43.608;1.458;2023-05-11T10:02:26;100030.72;;;13.50;100.00
49723;BME280;43484;43.608;1.458;2023-05-11T10:04:55;100023.88;;;13.50;100.00
49723;BME280;43484;43.608;1.458;2023-05-11T10:09:55;100030.22;;;13.66;100.00
49723;BME280;43484;43.608;1.458;2023-05-11T10:12:23;100037.75;;;14.00;100.00
49723;BME280;43484;43.608;1.458;2023-05-11T10:14:54;100037.56;;;13.90;100.00
49723;BME280;43484;43.608;1.458;2023-05-11T10:17:24;100033.19;;;13.87;100.00
49723;BME280;43484;43.608;1.458;2023-05-11T10:19:53;100039.88;;;13.77;100.00
49723;BME280;43484;43.608;1.458;2023-05-11T10:22:23;100027.44;;;13.57;100.00
49723;BME280;43484;43.608;1.458;2023-05-11T10:24:50;100014.00;;;13.71;100.00
49723;BME280;43484;43.608;1.458;2023-05-11T10:27:18;100014.34;;;13.88;100.00
49723;BME280;43484;43.608;1.458;2023-05-11T10:29:46;100019.22;;;13.73;100.00
49723;BME280;43484;43.608;1.458;2023-05-11T10:32:16;100014.13;;;13.76;100.00
49723;BME280;43484;43.608;1.458;2023-05-11T10:34:44;100020.13;;;14.21;100.00
49723;BME280;43484;43.608;1.458;2023-05-11T10:37:15;100026.47;;;14.38;100.00
49723;BME280;43484;43.608;1.458;2023-05-11T10:39:43;100044.59;;;14.44;100.00
49723;BME280;43484;43.608;1.458;2023-05-11T10:42:21;100022.53;;;14.60;100.00
49723;BME280;43484;43.608;1.458;2023-05-11T10:50:33;100013.63;;;14.95;100.00
49723;BME280;43484;43.608;1.458;2023-05-11T10:56:12;100017.69;;;14.79;100.00
49723;BME280;43484;43.608;1.458;2023-05-11T11:01:51;100017.28;;;14.55;100.00
49723;BME280;43484;43.608;1.458;2023-05-11T11:04:20;100000.34;;;14.69;100.00
49723;BME280;43484;43.608;1.458;2023-05-11T11:07:03;100010.03;;;14.87;100.00
49723;BME280;43484;43.608;1.458;2023-05-11T11:09:49;100003.38;;;15.01;100.00
49723;BME280;43484;43.608;1.458;2023-05-11T11:12:18;100005.88;;;14.95;100.00
49723;BME280;43484;43.608;1.458;2023-05-11T11:14:56;100000.84;;;15.04;100.00
49723;BME280;43484;43.608;1.458;2023-05-11T11:17:28;99998.06;;;14.90;100.00
49723;BME280;43484;43.608;1.458;2023-05-11T11:19:58;100003.28;;;14.93;100.00
49723;BME280;43484;43.608;1.458;2023-05-11T11:25:08;100004.53;;;14.63;100.00
49723;BME280;43484;43.608;1.458;2023-05-11T11:30:23;99998.28;;;14.49;100.00
49723;BME280;43484;43.608;1.458;2023-05-11T11:38:18;99986.78;;;14.84;100.00
49723;BME280;43484;43.608;1.458;2023-05-11T11:40:47;99991.25;;;14.95;100.00
49723;BME280;43484;43.608;1.458;2023-05-11T11:43:23;99987.19;;;15.13;100.00
49723;BME280;43484;43.608;1.458;2023-05-11T11:45:52;99977.72;;;15.10;100.00
49723;BME280;43484;43.608;1.458;2023-05-11T11:48:37;99972.16;;;15.44;100.00
49723;BME280;43484;43.608;1.458;2023-05-11T12:01:19;99970.06;;;15.16;100.00
49723;BME280;43484;43.608;1.458;2023-05-11T12:06:39;99972.66;;;15.19;100.00
49723;BME280;43484;43.608;1.458;2023-05-11T12:09:06;99979.97;;;15.47;100.00
49723;BME280;43484;43.608;1.458;2023-05-11T12:11:33;99967.53;;;15.21;100.00
49723;BME280;43484;43.608;1.458;2023-05-11T12:14:01;99969.44;;;15.35;100.00
49723;BME280;43484;43.608;1.458;2023-05-11T12:16:28;99977.84;;;15.21;100.00
49723;BME280;43484;43.608;1.458;2023-05-11T12:19:00;99972.69;;;15.22;100.00
49723;BME280;43484;43.608;1.458;2023-05-11T12:21:29;99956.63;;;15.41;100.00
49723;BME280;43484;43.608;1.458;2023-05-11T12:24:00;99967.31;;;15.70;100.00
49723;BME280;43484;43.608;1.458;2023-05-11T12:26:28;99978.19;;;15.43;100.00
49723;BME280;43484;43.608;1.458;2023-05-11T12:29:12;99982.94;;;15.16;100.00
49723;BME280;43484;43.608;1.458;2023-05-11T12:31:40;99984.72;;;15.19;100.00
49723;BME280;43484;43.608;1.458;2023-05-11T12:34:14;99975.47;;;15.36;100.00
49723;BME280;43484;43.608;1.458;2023-05-11T12:36:43;99983.72;;;15.10;100.00
49723;BME280;43484;43.608;1.458;2023-05-11T12:39:20;99979.94;;;14.84;100.00
49723;BME280;43484;43.608;1.458;2023-05-11T12:41:50;99961.56;;;15.26;100.00
49723;BME280;43484;43.608;1.458;2023-05-11T12:44:19;99957.00;;;15.73;100.00
49723;BME280;43484;43.608;1.458;2023-05-11T12:46:48;99958.06;;;15.91;100.00
49723;BME280;43484;43.608;1.458;2023-05-11T12:49:17;99969.38;;;16.04;100.00
49723;BME280;43484;43.608;1.458;2023-05-11T12:56:51;99966.13;;;15.42;100.00
49723;BME280;43484;43.608;1.458;2023-05-11T13:02:17;99965.63;;;15.75;100.00
49723;BME280;43484;43.608;1.458;2023-05-11T13:04:45;99964.31;;;15.37;100.00
49723;BME280;43484;43.608;1.458;2023-05-11T13:07:13;99972.78;;;15.27;100.00
49723;BME280;43484;43.608;1.458;2023-05-11T13:09:40;99952.72;;;15.75;100.00
49723;BME280;43484;43.608;1.458;2023-05-11T13:12:14;99955.19;;;15.64;100.00
49723;BME280;43484;43.608;1.458;2023-05-11T13:14:47;99947.34;;;15.55;100.00
49723;BME280;43484;43.608;1.458;2023-05-11T13:17:28;99950.16;;;15.78;100.00
49723;BME280;43484;43.608;1.458;2023-05-11T13:19:56;99939.81;;;15.76;100.00
49723;BME280;43484;43.608;1.458;2023-05-11T13:22:40;99944.16;;;15.77;100.00
49723;BME280;43484;43.608;1.458;2023-05-11T13:25:07;99935.69;;;15.92;100.00
49723;BME280;43484;43.608;1.458;2023-05-11T13:27:35;99921.91;;;15.96;100.00
49723;BME280;43484;43.608;1.458;2023-05-11T13:30:05;99914.22;;;16.00;100.00
49723;BME280;43484;43.608;1.458;2023-05-11T13:32:32;99931.59;;;16.19;100.00
49723;BME280;43484;43.608;1.458;2023-05-11T13:35:03;99915.16;;;16.08;100.00
49723;BME280;43484;43.608;1.458;2023-05-11T13:37:30;99923.38;;;16.64;100.00
49723;BME280;43484;43.608;1.458;2023-05-11T13:39:57;99953.56;;;16.67;100.00
49723;BME280;43484;43.608;1.458;2023-05-11T13:42:24;99948.31;;;15.65;100.00
49723;BME280;43484;43.608;1.458;2023-05-11T13:44:50;99954.09;;;15.44;100.00
49723;BME280;43484;43.608;1.458;2023-05-11T13:47:17;99944.78;;;15.57;100.00
49723;BME280;43484;43.608;1.458;2023-05-11T13:49:44;99944.75;;;15.55;100.00